Llefia, Spain
Current Conditions -  °F | °C
As of 5:00 PM on Saturday 22 Nov 2014 (Local Time) from LELL Reporting Station
Few Clouds Few Clouds  
Wind Chill: 66°   Ceiling: Unl
Heat Index: 66°   Visibility: 6mi
Dew Point: 59°   Wind: 0mph
Humidity: 78%   Direction: NA
Pressure: 30.03"   Gusts: NA
Location:  41.44°N, 2.22°E
Report Text: LELL 221600Z 00000KT 9999 FEW015 19/15 Q1017 NOSIG
Loading
Personal Weather Stations






























Interactive Weather Map New forecast layout! Learn more

10-Day Weather Forecast

Advertisements
Track Severe Weather on mobile